Time;durP1;ratioP1;P1;durP2;ratioP2;P2;SDS_P1;SDS_P2;PMS_P1;PMS_P2;Temp;Humidity;BMP_temperature;BMP_pressure;BME280_temperature;BME280_humidity;BME280_pressure;Samples;Min_cycle;Max_cycle;Signal;HPM_P1;HPM_P2
2023/01/02 00:00:51;;;;;;;13.73;9.30;;;12.30;99.90;;;;;;6260812;23;20402;-86
2023/01/02 00:03:18;;;;;;;20.30;12.20;;;12.30;99.90;;;;;;6258270;23;20436;-86
2023/01/02 00:05:45;;;;;;;27.50;18.20;;;12.30;1.30;;;;;;6257527;23;20409;-85
2023/01/02 00:08:12;;;;;;;33.00;17.50;;;12.30;1.00;;;;;;6257176;22;20539;-87
2023/01/02 00:10:39;;;;;;;24.17;13.80;;;12.30;99.90;;;;;;6266298;22;20408;-85
2023/01/02 00:13:06;;;;;;;16.27;10.37;;;12.30;99.90;;;;;;6256990;23;20444;-86
2023/01/02 00:15:34;;;;;;;16.17;9.90;;;12.30;99.90;;;;;;6256253;23;20571;-85
2023/01/02 00:18:01;;;;;;;12.37;9.03;;;12.30;99.90;;;;;;6256470;22;20429;-86
2023/01/02 00:20:27;;;;;;;11.80;7.20;;;12.20;99.90;;;;;;6256309;23;20447;-85
2023/01/02 00:22:54;;;;;;;15.40;8.60;;;12.20;1.00;;;;;;6254508;23;20395;-85
2023/01/02 00:25:21;;;;;;;9.10;6.33;;;12.20;16.30;;;;;;6256037;23;20433;-86
2023/01/02 00:27:48;;;;;;;13.53;7.50;;;12.20;21.90;;;;;;6254602;22;20453;-86
2023/01/02 00:30:15;;;;;;;22.40;10.20;;;12.20;95.50;;;;;;6256544;23;20396;-86
2023/01/02 00:32:43;;;;;;;20.57;11.93;;;12.10;99.90;;;;;;6258317;23;20379;-86
2023/01/02 00:35:10;;;;;;;15.53;9.00;;;12.10;1.90;;;;;;6258801;23;20449;-85
2023/01/02 00:37:37;;;;;;;14.93;8.80;;;11.80;99.90;;;;;;6261927;22;20426;-85
2023/01/02 00:40:05;;;;;;;10.93;7.37;;;12.00;1.00;;;;;;6274795;22;20390;-84
2023/01/02 00:42:32;;;;;;;11.50;6.80;;;;;;;;;;6274897;22;20394;-85
2023/01/02 00:44:59;;;;;;;11.87;6.40;;;11.90;1.00;;;;;;6262359;23;20402;-85
2023/01/02 00:47:26;;;;;;;9.27;4.90;;;12.00;99.90;;;;;;6257256;22;20472;-86
2023/01/02 00:49:54;;;;;;;9.07;5.30;;;12.00;1.00;;;;;;6257173;23;20465;-86
2023/01/02 00:52:21;;;;;;;7.83;5.20;;;12.30;1.00;;;;;;6255861;23;20418;-87
2023/01/02 00:54:48;;;;;;;5.63;4.07;;;12.10;99.90;;;;;;6256129;23;20416;-87
2023/01/02 00:57:14;;;;;;;6.33;4.40;;;12.20;99.90;;;;;;6256905;22;20524;-87
2023/01/02 00:59:41;;;;;;;6.40;4.57;;;12.10;99.90;;;;;;6256542;23;20488;-86
2023/01/02 01:02:08;;;;;;;5.53;4.20;;;12.10;99.90;;;;;;6257551;23;20425;-86
2023/01/02 01:04:35;;;;;;;5.90;3.90;;;12.00;1.00;;;;;;6257009;23;20441;-86
2023/01/02 01:07:04;;;;;;;6.23;4.30;;;12.00;99.90;;;;;;6255649;22;20748;-86
2023/01/02 01:09:31;;;;;;;6.07;4.83;;;12.00;1.00;;;;;;6257231;23;20775;-86
2023/01/02 01:11:58;;;;;;;7.73;4.33;;;12.00;1.00;;;;;;6256409;23;20384;-87
2023/01/02 01:14:25;;;;;;;8.03;4.43;;;12.00;1.00;;;;;;6256492;23;20376;-85
2023/01/02 01:16:52;;;;;;;6.13;4.20;;;;;;;;;;6256777;22;20449;-86
2023/01/02 01:19:19;;;;;;;9.40;4.10;;;12.00;99.90;;;;;;6256285;23;20429;-85
2023/01/02 01:21:45;;;;;;;5.97;5.23;;;12.00;99.90;;;;;;6255803;23;20466;-85
2023/01/02 01:24:15;;;;;;;9.73;5.87;;;12.00;99.90;;;;;;6256372;23;20394;-86
2023/01/02 01:26:41;;;;;;;13.13;5.57;;;12.00;1.00;;;;;;6259460;22;20919;-85
2023/01/02 01:29:08;;;;;;;10.03;6.00;;;12.00;1.00;;;;;;6266491;23;20400;-86
2023/01/02 01:31:35;;;;;;;7.83;4.83;;;11.90;1.00;;;;;;6260561;23;20387;-86
2023/01/02 01:34:02;;;;;;;12.73;5.20;;;12.00;1.00;;;;;;6257844;23;20754;-86
2023/01/02 01:36:29;;;;;;;9.03;5.30;;;12.00;99.90;;;;;;6257718;22;20436;-86
2023/01/02 01:38:56;;;;;;;7.93;4.80;;;;;;;;;;6256122;23;20900;-85
2023/01/02 01:41:26;;;;;;;11.70;4.87;;;12.00;99.90;;;;;;6256300;23;20435;-86
2023/01/02 01:43:55;;;;;;;5.30;4.33;;;12.00;99.90;;;;;;6257119;23;20440;-86
2023/01/02 01:46:27;;;;;;;9.53;4.97;;;12.00;1.00;;;;;;6256309;22;20433;-85
2023/01/02 01:48:59;;;;;;;6.57;5.60;;;12.00;99.90;;;;;;6255555;23;20405;-86
2023/01/02 01:51:28;;;;;;;7.30;4.80;;;11.90;1.00;;;;;;6256101;23;20440;-86
2023/01/02 01:54:04;;;;;;;9.53;5.77;;;12.00;99.90;;;;;;6261542;23;20406;-85
2023/01/02 01:56:35;;;;;;;5.43;4.30;;;12.00;99.90;;;;;;6267016;22;20428;-87
2023/01/02 01:59:03;;;;;;;6.50;4.47;;;12.00;99.90;;;;;;6258930;23;20361;-87
2023/01/02 02:01:30;;;;;;;8.20;5.50;;;12.00;99.90;;;;;;6257359;23;20405;-86
2023/01/02 02:03:57;;;;;;;12.87;6.23;;;12.00;99.90;;;;;;6255756;23;20469;-86
2023/01/02 02:06:26;;;;;;;7.37;5.90;;;12.20;99.90;;;;;;6257210;22;20541;-86
2023/01/02 02:08:58;;;;;;;8.43;4.40;;;12.10;99.90;;;;;;6258251;23;20393;-87
2023/01/02 02:11:25;;;;;;;11.13;5.40;;;12.10;99.90;;;;;;6258014;23;20468;-87
2023/01/02 02:13:58;;;;;;;9.63;4.70;;;12.10;99.90;;;;;;6257782;23;20440;-87
2023/01/02 02:16:33;;;;;;;6.30;5.57;;;12.00;99.90;;;;;;6257282;22;20425;-86
2023/01/02 02:19:34;;;;;;;7.90;4.80;;;12.10;1.00;;;;;;6256847;23;20389;-87
2023/01/02 02:22:30;;;;;;;5.20;4.70;;;12.10;1.00;;;;;;6256323;23;20473;-86
2023/01/02 02:25:38;;;;;;;4.70;4.13;;;12.00;1.00;;;;;;6257221;23;20386;-87
2023/01/02 02:28:45;;;;;;;6.63;4.37;;;12.10;1.00;;;;;;6254664;22;20488;-80
2023/01/02 02:31:20;;;;;;;5.33;4.10;;;12.10;1.00;;;;;;6259717;22;20445;-80
2023/01/02 02:33:52;;;;;;;12.53;4.13;;;12.10;1.00;;;;;;6258681;22;20433;-80
2023/01/02 02:36:25;;;;;;;4.97;4.00;;;12.20;1.00;;;;;;6268811;22;20392;-80
2023/01/02 02:39:06;;;;;;;6.77;4.73;;;12.20;1.00;;;;;;6239348;22;20979;-80
2023/01/02 02:41:35;;;;;;;5.83;4.50;;;12.20;99.90;;;;;;6237587;23;20382;-80
2023/01/02 02:44:11;;;;;;;5.00;3.60;;;12.20;99.90;;;;;;6236484;23;20441;-81
2023/01/02 02:46:47;;;;;;;6.20;3.83;;;12.00;99.90;;;;;;6224032;23;20421;-80
2023/01/02 02:49:25;;;;;;;5.50;4.13;;;12.30;1.00;;;;;;6223842;23;20364;-80
2023/01/02 02:52:00;;;;;;;9.77;4.47;;;12.40;83.60;;;;;;6231150;23;20474;-80
2023/01/02 02:54:35;;;;;;;5.40;3.77;;;12.40;1.00;;;;;;6221349;23;20433;-80
2023/01/02 02:57:02;;;;;;;4.27;3.87;;;12.40;1.00;;;;;;6222319;23;20400;-80
2023/01/02 02:59:30;;;;;;;6.97;3.97;;;12.30;1.00;;;;;;6222418;23;20403;-81
2023/01/02 03:01:58;;;;;;;5.17;4.40;;;12.30;1.00;;;;;;6222259;23;20381;-80
2023/01/02 03:04:25;;;;;;;10.23;5.30;;;12.40;99.90;;;;;;6222235;23;20433;-81
2023/01/02 03:07:06;;;;;;;8.23;4.27;;;12.50;47.50;;;;;;6223354;23;20426;-81
2023/01/02 03:09:43;;;;;;;6.60;4.33;;;12.30;1.00;;;;;;6221728;23;20889;-82
2023/01/02 03:12:22;;;;;;;5.03;3.77;;;12.30;29.10;;;;;;6222499;23;20386;-80
2023/01/02 03:14:58;;;;;;;6.93;3.93;;;12.10;99.90;;;;;;6224016;23;20429;-82
2023/01/02 03:17:33;;;;;;;11.67;5.27;;;12.20;99.90;;;;;;6221673;23;20396;-81
2023/01/02 03:20:05;;;;;;;12.30;4.93;;;12.20;2.60;;;;;;6222221;23;20807;-82
2023/01/02 03:22:36;;;;;;;9.70;4.27;;;12.20;1.00;;;;;;6222213;23;20846;-81
2023/01/02 03:25:04;;;;;;;6.50;5.47;;;12.20;1.00;;;;;;6221930;23;20376;-81
2023/01/02 03:27:36;;;;;;;5.03;4.47;;;12.20;18.30;;;;;;6221409;23;20929;-81
2023/01/02 03:30:05;;;;;;;7.53;4.03;;;12.20;1.00;;;;;;6222622;23;20370;-80
2023/01/02 03:32:40;;;;;;;5.10;4.60;;;12.20;1.00;;;;;;6222376;23;20474;-80
2023/01/02 03:35:13;;;;;;;5.67;4.57;;;12.30;92.00;;;;;;6223586;23;20394;-80
2023/01/02 03:37:46;;;;;;;8.30;4.73;;;12.20;1.00;;;;;;6223396;23;20434;-80
2023/01/02 03:40:19;;;;;;;7.20;5.17;;;12.30;99.90;;;;;;6223181;23;20711;-80
2023/01/02 03:42:50;;;;;;;4.80;4.20;;;12.40;1.00;;;;;;6225560;23;20427;-80
2023/01/02 03:45:22;;;;;;;5.93;4.03;;;12.30;1.00;;;;;;6227997;23;20426;-82
2023/01/02 03:47:56;;;;;;;5.93;4.97;;;12.20;1.00;;;;;;6225323;23;20509;-81
2023/01/02 03:50:27;;;;;;;7.23;4.57;;;12.30;1.00;;;;;;6226475;23;20390;-81
2023/01/02 03:52:54;;;;;;;8.60;5.03;;;12.30;1.00;;;;;;6222451;23;20478;-81
2023/01/02 03:55:24;;;;;;;4.93;4.23;;;12.30;1.00;;;;;;6221757;23;20417;-81
2023/01/02 03:58:00;;;;;;;5.70;4.40;;;12.40;1.00;;;;;;6222797;23;20843;-80
2023/01/02 04:00:34;;;;;;;7.20;4.50;;;12.10;99.90;;;;;;6242269;23;20381;-80
2023/01/02 04:03:07;;;;;;;6.20;4.97;;;12.30;96.90;;;;;;6240105;23;20357;-80
2023/01/02 04:05:42;;;;;;;5.60;4.53;;;12.50;99.90;;;;;;6235859;23;20394;-80
2023/01/02 04:08:13;;;;;;;5.50;4.80;;;12.40;1.00;;;;;;6225059;23;20499;-80
2023/01/02 04:10:43;;;;;;;5.83;4.50;;;12.30;99.90;;;;;;6226132;23;20456;-80
2023/01/02 04:13:17;;;;;;;6.10;4.20;;;12.40;18.60;;;;;;6221868;23;20445;-81
2023/01/02 04:15:46;;;;;;;7.73;5.13;;;12.40;1.00;;;;;;6221911;23;20402;-81
2023/01/02 04:18:20;;;;;;;6.87;4.70;;;12.30;99.90;;;;;;6221635;23;20450;-81
2023/01/02 04:20:51;;;;;;;8.43;3.90;;;12.20;1.00;;;;;;6222424;23;20391;-80
2023/01/02 04:23:23;;;;;;;5.53;4.70;;;12.20;1.00;;;;;;6221525;23;20381;-81
2023/01/02 04:26:01;;;;;;;6.37;5.77;;;12.50;99.90;;;;;;6220782;23;20465;-81
2023/01/02 04:28:30;;;;;;;7.40;5.00;;;12.50;99.90;;;;;;6221388;23;20524;-81
2023/01/02 04:31:05;;;;;;;6.17;4.80;;;12.20;1.00;;;;;;6221580;23;20434;-81
2023/01/02 04:33:37;;;;;;;5.07;4.57;;;12.50;1.00;;;;;;6221977;23;20478;-81
2023/01/02 04:36:08;;;;;;;7.80;4.70;;;12.50;18.70;;;;;;6224102;23;20442;-81
2023/01/02 04:38:35;;;;;;;5.00;4.50;;;12.60;99.90;;;;;;6224768;23;20401;-81
2023/01/02 04:41:02;;;;;;;7.47;4.77;;;12.60;1.00;;;;;;6223490;23;20902;-81
2023/01/02 04:43:29;;;;;;;6.70;4.60;;;12.60;99.90;;;;;;6233323;23;20380;-80
2023/01/02 04:45:56;;;;;;;5.70;4.73;;;12.60;1.00;;;;;;6240721;23;20485;-79
2023/01/02 04:48:23;;;;;;;12.10;5.33;;;12.60;67.20;;;;;;6227538;23;20530;-79
2023/01/02 04:50:53;;;;;;;7.97;4.60;;;12.70;1.00;;;;;;6221288;23;20923;-80
2023/01/02 04:53:20;;;;;;;7.03;5.03;;;12.70;1.00;;;;;;6221227;23;20926;-79
2023/01/02 04:55:47;;;;;;;6.60;4.70;;;12.70;1.00;;;;;;6221571;23;20418;-80
2023/01/02 04:58:14;;;;;;;5.03;4.63;;;12.70;1.00;;;;;;6221200;23;20475;-81
2023/01/02 05:00:41;;;;;;;11.00;5.10;;;12.80;1.00;;;;;;6221260;23;20441;-80
2023/01/02 05:03:07;;;;;;;5.77;4.77;;;12.80;1.00;;;;;;6220901;23;20701;-80
2023/01/02 05:05:34;;;;;;;5.73;5.13;;;12.80;1.00;;;;;;6222203;23;20410;-80
2023/01/02 05:08:02;;;;;;;5.10;4.60;;;12.80;1.00;;;;;;6221899;23;20521;-80
2023/01/02 05:10:29;;;;;;;7.53;4.30;;;12.90;1.00;;;;;;6222802;23;20434;-81
2023/01/02 05:13:00;;;;;;;4.73;4.30;;;12.90;1.00;;;;;;6226160;23;20482;-80
2023/01/02 05:15:27;;;;;;;6.23;5.63;;;12.90;1.00;;;;;;6223864;23;20386;-80
2023/01/02 05:17:54;;;;;;;6.07;5.07;;;12.90;28.40;;;;;;6221090;23;20985;-80
2023/01/02 05:20:20;;;;;;;6.23;4.80;;;12.80;1.00;;;;;;6220561;23;20415;-80
2023/01/02 05:25:34;;;;;;;6.20;4.93;;;13.10;1.00;;;;;;6221393;23;20389;-80
2023/01/02 05:28:02;;;;;;;5.67;4.97;;;13.00;99.90;;;;;;6220217;23;20428;-80
2023/01/02 05:30:29;;;;;;;6.07;4.80;;;13.00;99.90;;;;;;6220572;23;20497;-80
2023/01/02 05:32:55;;;;;;;6.30;4.40;;;12.90;99.90;;;;;;6221256;23;20407;-81
2023/01/02 05:35:22;;;;;;;5.70;4.80;;;12.90;1.00;;;;;;6220121;23;20406;-82
2023/01/02 05:37:49;;;;;;;7.77;5.03;;;12.80;1.00;;;;;;6221031;23;20426;-81
2023/01/02 05:40:16;;;;;;;4.83;4.30;;;12.90;1.00;;;;;;6227826;23;20413;-81
2023/01/02 05:42:44;;;;;;;8.50;5.37;;;13.00;99.90;;;;;;6243776;23;20406;-81
2023/01/02 05:45:11;;;;;;;5.47;4.60;;;12.90;99.90;;;;;;6244485;23;20433;-81
2023/01/02 05:47:38;;;;;;;5.87;4.67;;;12.90;99.90;;;;;;6239707;23;20416;-81
2023/01/02 05:50:06;;;;;;;5.23;4.37;;;12.90;99.90;;;;;;6240385;23;20469;-81
2023/01/02 05:52:33;;;;;;;4.70;3.87;;;12.80;99.90;;;;;;6242238;23;20402;-81
2023/01/02 05:55:00;;;;;;;5.63;3.90;;;12.80;99.90;;;;;;6243536;23;20406;-81
2023/01/02 05:57:26;;;;;;;6.90;5.00;;;13.10;1.00;;;;;;6241500;23;20421;-81
2023/01/02 05:59:54;;;;;;;5.53;4.87;;;12.80;99.90;;;;;;6246736;23;20791;-80
2023/01/02 06:02:21;;;;;;;4.80;3.57;;;12.80;99.90;;;;;;6247118;23;20398;-80
2023/01/02 06:04:48;;;;;;;6.33;4.83;;;12.90;99.90;;;;;;6245821;23;20398;-80
2023/01/02 06:07:15;;;;;;;7.90;4.87;;;12.90;1.00;;;;;;6229351;23;20453;-80
2023/01/02 06:09:42;;;;;;;6.20;4.20;;;12.90;1.00;;;;;;6228620;23;20440;-81
2023/01/02 06:12:09;;;;;;;4.70;3.87;;;12.80;1.00;;;;;;6226682;23;20449;-81
2023/01/02 06:14:35;;;;;;;9.37;4.40;;;12.90;99.90;;;;;;6226399;23;20416;-81
2023/01/02 06:17:03;;;;;;;6.47;4.10;;;12.90;99.90;;;;;;6225879;23;20483;-81
2023/01/02 06:19:30;;;;;;;6.60;4.43;;;12.90;99.90;;;;;;6224049;23;20402;-80
2023/01/02 06:21:57;;;;;;;5.00;4.50;;;13.00;1.00;;;;;;6229543;23;20473;-81
2023/01/02 06:24:24;;;;;;;5.20;4.33;;;12.90;99.90;;;;;;6225254;23;20413;-81
2023/01/02 06:26:51;;;;;;;8.03;3.50;;;13.00;99.90;;;;;;6220307;23;20509;-81
2023/01/02 06:29:17;;;;;;;5.13;4.23;;;12.90;99.90;;;;;;6221716;23;20436;-81
2023/01/02 06:31:44;;;;;;;4.60;4.20;;;12.90;99.90;;;;;;6222628;23;20420;-81
2023/01/02 06:34:12;;;;;;;6.83;4.07;;;13.00;99.90;;;;;;6221586;23;20436;-81
2023/01/02 06:36:41;;;;;;;5.37;4.20;;;13.30;1.00;;;;;;6223140;23;20408;-81
2023/01/02 06:39:08;;;;;;;10.33;5.23;;;13.00;99.90;;;;;;6223644;23;20429;-81
2023/01/02 06:41:35;;;;;;;6.47;3.60;;;12.90;1.00;;;;;;6223474;23;20406;-81
2023/01/02 06:44:02;;;;;;;10.80;3.93;;;13.10;99.90;;;;;;6223549;23;20494;-81
2023/01/02 06:46:28;;;;;;;8.47;3.87;;;13.20;99.90;;;;;;6223359;23;20444;-81
2023/01/02 06:48:55;;;;;;;6.70;3.73;;;13.50;99.90;;;;;;6222966;23;20497;-81
2023/01/02 06:51:24;;;;;;;6.13;4.50;;;13.30;99.90;;;;;;6221822;23;20493;-81
2023/01/02 06:53:50;;;;;;;4.30;3.90;;;13.30;99.90;;;;;;6221375;23;20885;-81
2023/01/02 06:56:19;;;;;;;4.63;4.03;;;13.30;99.90;;;;;;6221589;23;20422;-81
2023/01/02 06:58:46;;;;;;;4.93;3.70;;;13.30;99.90;;;;;;6221197;23;20422;-81
2023/01/02 07:01:15;;;;;;;5.33;3.63;;;13.30;99.90;;;;;;6221155;23;20501;-81
2023/01/02 07:03:42;;;;;;;5.43;4.00;;;13.30;99.90;;;;;;6220225;23;20456;-81
2023/01/02 07:06:11;;;;;;;5.30;4.10;;;13.40;99.90;;;;;;6221160;23;20410;-81
2023/01/02 07:08:40;;;;;;;5.27;4.13;;;13.30;96.90;;;;;;6220479;23;20423;-81
2023/01/02 07:11:10;;;;;;;5.33;4.30;;;13.40;72.80;;;;;;6221247;23;20981;-81
2023/01/02 07:13:37;;;;;;;7.10;4.10;;;13.40;90.70;;;;;;6221686;23;20780;-82
2023/01/02 07:16:05;;;;;;;5.80;4.10;;;13.40;99.90;;;;;;6220724;23;20406;-82
2023/01/02 07:18:32;;;;;;;8.23;4.07;;;13.30;99.90;;;;;;6220874;23;20754;-81
2023/01/02 07:20:59;;;;;;;5.47;4.00;;;13.30;99.90;;;;;;6220868;23;20485;-82
2023/01/02 07:23:26;;;;;;;13.43;4.50;;;13.30;99.90;;;;;;6221495;23;20778;-81
2023/01/02 07:25:56;;;;;;;5.07;4.00;;;13.10;99.90;;;;;;6221634;23;20462;-81
2023/01/02 07:28:23;;;;;;;5.40;3.93;;;13.30;99.90;;;;;;6222565;23;20486;-80
2023/01/02 07:30:50;;;;;;;4.43;4.03;;;13.30;99.90;;;;;;6222325;23;20453;-81
2023/01/02 07:33:17;;;;;;;3.97;3.67;;;13.30;97.30;;;;;;6224762;23;20411;-80
2023/01/02 07:35:44;;;;;;;4.87;3.63;;;13.30;99.90;;;;;;6227338;23;20458;-80
2023/01/02 07:38:11;;;;;;;7.33;3.57;;;13.30;96.30;;;;;;6238276;23;20422;-80
2023/01/02 07:40:38;;;;;;;6.93;4.20;;;13.40;58.40;;;;;;6239169;23;20402;-79
2023/01/02 07:43:06;;;;;;;5.93;3.67;;;13.40;99.90;;;;;;6236445;23;20422;-79
2023/01/02 07:45:33;;;;;;;4.50;3.77;;;13.40;57.40;;;;;;6221964;23;20402;-81
2023/01/02 07:48:01;;;;;;;5.33;4.40;;;13.50;43.20;;;;;;6223888;23;20398;-80
2023/01/02 07:50:27;;;;;;;6.33;4.07;;;13.30;99.90;;;;;;6241612;23;20441;-80
2023/01/02 07:52:54;;;;;;;6.63;4.50;;;13.70;99.90;;;;;;6240670;23;20406;-80
2023/01/02 07:55:21;;;;;;;9.43;3.57;;;13.50;19.40;;;;;;6236092;23;20434;-80
2023/01/02 07:57:48;;;;;;;7.83;3.50;;;13.50;3.70;;;;;;6237443;23;20458;-81
2023/01/02 08:00:18;;;;;;;7.40;3.90;;;13.50;22.20;;;;;;6240375;23;20406;-81
2023/01/02 08:02:45;;;;;;;4.63;4.10;;;13.50;26.30;;;;;;6221681;23;20409;-81
2023/01/02 08:05:12;;;;;;;8.63;4.37;;;13.50;14.90;;;;;;6221372;23;20409;-81
2023/01/02 08:07:39;;;;;;;5.83;3.63;;;13.60;5.50;;;;;;6225370;23;20494;-81
2023/01/02 08:10:06;;;;;;;5.80;3.43;;;13.60;1.00;;;;;;6222642;23;20529;-81
2023/01/02 08:12:33;;;;;;;6.30;4.20;;;13.60;1.00;;;;;;6218783;23;20723;-81
2023/01/02 08:15:00;;;;;;;3.57;3.27;;;13.70;1.00;;;;;;6218511;23;20489;-81
2023/01/02 08:17:29;;;;;;;4.17;3.30;;;13.70;1.00;;;;;;6229576;23;20457;-80
2023/01/02 08:19:56;;;;;;;5.43;3.40;;;13.80;1.00;;;;;;6226419;23;20413;-81
2023/01/02 08:22:22;;;;;;;8.50;4.27;;;13.80;99.90;;;;;;6228363;23;20409;-81
2023/01/02 08:24:49;;;;;;;5.50;3.40;;;13.90;1.00;;;;;;6229371;23;20445;-80
2023/01/02 08:27:16;;;;;;;4.87;3.90;;;13.90;1.00;;;;;;6224568;23;20442;-80
2023/01/02 08:29:43;;;;;;;9.13;3.87;;;13.90;1.00;;;;;;6224713;23;20629;-81
2023/01/02 08:32:10;;;;;;;11.43;3.93;;;13.90;1.00;;;;;;6230102;23;20426;-79
2023/01/02 08:34:38;;;;;;;7.17;3.70;;;13.90;1.00;;;;;;6228717;23;20441;-81
2023/01/02 08:37:05;;;;;;;6.93;3.40;;;14.00;1.00;;;;;;6229134;23;20434;-80
2023/01/02 08:39:32;;;;;;;4.80;3.23;;;14.10;1.00;;;;;;6222344;23;20409;-81
2023/01/02 08:41:58;;;;;;;3.33;3.03;;;14.10;1.00;;;;;;6224237;23;20418;-80
2023/01/02 08:44:25;;;;;;;6.70;2.67;;;14.10;1.00;;;;;;6222713;23;20406;-82
2023/01/02 08:46:52;;;;;;;3.53;3.23;;;14.20;1.00;;;;;;6223766;23;20437;-81
2023/01/02 08:49:19;;;;;;;5.23;2.93;;;14.10;1.00;;;;;;6233462;23;20449;-81
2023/01/02 08:51:47;;;;;;;6.07;3.70;;;14.20;1.00;;;;;;6236726;23;20781;-81
2023/01/02 08:54:14;;;;;;;6.93;3.80;;;14.30;1.00;;;;;;6236424;23;20426;-81
2023/01/02 08:56:41;;;;;;;4.33;3.93;;;14.10;99.90;;;;;;6229695;23;20437;-81
2023/01/02 08:59:10;;;;;;;10.10;3.80;;;14.40;1.00;;;;;;6225492;23;20470;-82
2023/01/02 09:01:38;;;;;;;6.60;3.63;;;14.40;1.00;;;;;;6232337;23;20426;-82
2023/01/02 09:04:06;;;;;;;4.80;3.50;;;14.30;1.00;;;;;;6240788;23;20454;-80
2023/01/02 09:06:35;;;;;;;7.27;3.90;;;14.20;58.40;;;;;;6241256;23;20409;-80
2023/01/02 09:09:04;;;;;;;6.07;3.63;;;14.30;1.00;;;;;;6239416;23;20981;-81
2023/01/02 09:11:33;;;;;;;4.43;3.23;;;14.30;1.00;;;;;;6235547;23;20410;-81
2023/01/02 09:14:00;;;;;;;6.50;4.10;;;14.30;1.00;;;;;;6235228;23;20413;-81
2023/01/02 09:16:28;;;;;;;5.00;3.20;;;14.30;1.00;;;;;;6235442;23;20406;-81
2023/01/02 09:18:56;;;;;;;6.50;3.17;;;14.30;1.00;;;;;;6235305;23;20423;-81
2023/01/02 09:21:23;;;;;;;4.00;3.13;;;14.40;1.00;;;;;;6233255;23;20398;-81
2023/01/02 09:23:50;;;;;;;3.60;2.87;;;14.40;1.00;;;;;;6234408;23;20442;-81
2023/01/02 09:26:18;;;;;;;3.50;2.80;;;14.30;1.00;;;;;;6232677;23;20454;-80
2023/01/02 09:28:46;;;;;;;7.80;3.80;;;14.40;1.00;;;;;;6233522;23;20525;-80
2023/01/02 09:31:14;;;;;;;5.23;3.80;;;14.80;99.90;;;;;;6233575;23;20394;-80
2023/01/02 09:33:41;;;;;;;5.27;3.80;;;14.50;1.00;;;;;;6233354;23;20453;-80
2023/01/02 09:36:10;;;;;;;8.07;3.60;;;14.60;1.00;;;;;;6234529;23;20381;-80
2023/01/02 09:38:37;;;;;;;7.43;4.20;;;14.60;1.00;;;;;;6234416;23;20449;-81
2023/01/02 09:41:09;;;;;;;8.87;5.00;;;14.60;1.00;;;;;;6221974;23;20737;-80
2023/01/02 09:43:41;;;;;;;2.90;2.70;;;14.70;1.00;;;;;;6220586;23;20463;-80
2023/01/02 09:46:18;;;;;;;5.17;3.37;;;14.40;4.50;;;;;;6229848;23;20410;-79
2023/01/02 09:48:45;;;;;;;7.70;3.60;;;14.70;1.00;;;;;;6233536;23;20453;-79
2023/01/02 09:51:12;;;;;;;5.33;3.10;;;14.70;1.00;;;;;;6232274;23;20485;-79
2023/01/02 09:53:39;;;;;;;8.30;4.70;;;14.80;1.00;;;;;;6221675;23;20420;-80
2023/01/02 09:56:13;;;;;;;8.37;3.70;;;14.70;72.70;;;;;;6229032;23;20470;-80
2023/01/02 09:58:47;;;;;;;7.50;4.00;;;14.80;1.00;;;;;;6222997;23;20397;-80
2023/01/02 10:01:22;;;;;;;3.30;2.80;;;14.80;1.00;;;;;;6219430;23;20390;-80
2023/01/02 10:03:59;;;;;;;5.30;4.00;;;14.90;1.00;;;;;;6219431;23;20729;-81
2023/01/02 10:06:33;;;;;;;4.87;3.33;;;14.90;1.00;;;;;;6219483;23;20451;-81
2023/01/02 10:09:09;;;;;;;6.00;3.90;;;14.90;1.00;;;;;;6218225;23;20406;-80
2023/01/02 10:11:48;;;;;;;3.50;3.07;;;15.00;1.00;;;;;;6217893;23;20394;-80
2023/01/02 10:14:23;;;;;;;5.00;3.50;;;15.00;1.00;;;;;;6218391;23;20775;-81
2023/01/02 10:16:53;;;;;;;5.70;3.67;;;15.10;1.00;;;;;;6228312;23;20909;-80
2023/01/02 10:19:25;;;;;;;5.47;3.30;;;15.20;1.00;;;;;;6218990;23;20402;-81
2023/01/02 10:21:55;;;;;;;7.30;3.60;;;15.20;1.00;;;;;;6219116;23;20383;-80
2023/01/02 10:24:29;;;;;;;8.30;3.90;;;15.20;1.00;;;;;;6219020;23;20422;-80
2023/01/02 10:26:56;;;;;;;10.40;3.53;;;15.20;1.00;;;;;;6220217;23;20509;-80
2023/01/02 10:29:28;;;;;;;4.50;2.93;;;15.20;1.00;;;;;;6221391;23;20449;-81
2023/01/02 10:31:59;;;;;;;4.80;3.40;;;15.30;1.00;;;;;;6220585;23;20395;-81
2023/01/02 10:34:38;;;;;;;8.93;3.17;;;15.30;1.00;;;;;;6226417;23;20449;-81
2023/01/02 10:37:11;;;;;;;11.20;3.23;;;15.30;1.00;;;;;;6230555;23;20425;-80
2023/01/02 10:39:38;;;;;;;4.10;3.13;;;15.30;1.00;;;;;;6221881;23;20760;-80
2023/01/02 10:42:05;;;;;;;4.27;3.13;;;15.30;1.00;;;;;;6220896;23;20442;-80
2023/01/02 10:44:37;;;;;;;5.93;3.50;;;15.20;1.00;;;;;;6221357;23;20493;-81
2023/01/02 10:47:13;;;;;;;6.77;3.27;;;15.20;1.00;;;;;;6221425;23;20937;-81
2023/01/02 10:49:43;;;;;;;4.37;3.00;;;15.20;1.00;;;;;;6237944;23;20448;-81
2023/01/02 10:52:15;;;;;;;5.13;3.80;;;15.20;1.00;;;;;;6245176;23;20492;-80
2023/01/02 10:54:49;;;;;;;9.10;3.00;;;15.30;1.00;;;;;;6245663;23;20422;-80
2023/01/02 10:57:23;;;;;;;7.97;3.00;;;15.20;1.00;;;;;;6228392;23;20509;-81
2023/01/02 10:59:57;;;;;;;5.30;3.20;;;15.20;1.00;;;;;;6221732;23;20763;-81
2023/01/02 11:02:30;;;;;;;5.80;2.80;;;15.20;1.00;;;;;;6224414;23;20391;-80
2023/01/02 11:05:02;;;;;;;3.83;3.23;;;15.20;1.00;;;;;;6223910;23;20947;-82
2023/01/02 11:07:32;;;;;;;7.53;3.17;;;15.20;1.00;;;;;;6232526;23;20426;-81
2023/01/02 11:10:00;;;;;;;6.30;2.63;;;15.40;86.80;;;;;;6238350;23;20429;-81
2023/01/02 11:12:27;;;;;;;6.70;3.80;;;15.30;1.00;;;;;;6226952;23;20539;-81
2023/01/02 11:15:10;;;;;;;6.53;2.53;;;15.30;1.00;;;;;;6222494;23;20411;-80
2023/01/02 11:17:42;;;;;;;4.83;3.10;;;15.30;1.00;;;;;;6221015;23;20509;-81
2023/01/02 11:20:23;;;;;;;7.10;3.17;;;15.30;1.00;;;;;;6220409;23;20433;-80
2023/01/02 11:22:50;;;;;;;7.13;2.77;;;15.30;1.00;;;;;;6219678;23;20474;-80
2023/01/02 11:25:22;;;;;;;6.73;3.00;;;15.20;1.00;;;;;;6218574;23;20488;-80
2023/01/02 11:27:49;;;;;;;3.63;2.63;;;15.10;1.00;;;;;;6218348;23;20442;-80
2023/01/02 11:30:34;;;;;;;5.77;3.37;;;15.00;1.00;;;;;;6218981;23;20505;-81
2023/01/02 11:33:05;;;;;;;9.47;3.73;;;14.90;1.00;;;;;;6219779;23;20482;-81
2023/01/02 11:35:38;;;;;;;3.30;2.93;;;14.90;1.00;;;;;;6221696;23;20453;-81
2023/01/02 11:38:14;;;;;;;5.10;3.03;;;14.90;11.10;;;;;;6218764;23;20429;-81
2023/01/02 11:40:52;;;;;;;8.43;6.10;;;14.90;1.00;;;;;;6229767;23;20433;-81
2023/01/02 11:46:30;;;;;;;5.33;4.33;;;14.80;99.90;;;;;;6188931;23;20350;-82
2023/01/02 11:49:04;;;;;;;4.60;3.00;;;14.90;1.00;;;;;;6185539;23;20388;-81
2023/01/02 11:51:34;;;;;;;6.80;3.93;;;14.90;1.00;;;;;;6203645;23;20429;-80
2023/01/02 11:54:04;;;;;;;13.40;8.60;;;14.90;1.00;;;;;;6219228;23;20395;-80
2023/01/02 11:56:35;;;;;;;8.03;4.30;;;15.10;99.90;;;;;;6219312;23;20397;-80
2023/01/02 11:59:09;;;;;;;8.30;3.73;;;14.90;1.00;;;;;;6220988;23;20464;-79
2023/01/02 12:01:47;;;;;;;4.53;3.10;;;15.00;1.00;;;;;;6234430;23;20354;-79
2023/01/02 12:04:14;;;;;;;8.33;3.47;;;15.00;1.00;;;;;;6239046;23;20371;-79
2023/01/02 12:06:58;;;;;;;8.10;2.90;;;14.90;99.90;;;;;;6238182;23;20392;-80
2023/01/02 12:09:34;;;;;;;8.13;3.63;;;14.90;1.00;;;;;;6219676;23;20393;-80
2023/01/02 12:12:19;;;;;;;6.83;3.20;;;15.00;99.90;;;;;;6220411;23;20723;-80
2023/01/02 12:15:03;;;;;;;9.50;4.00;;;15.00;1.00;;;;;;6221944;23;20739;-80
2023/01/02 12:17:43;;;;;;;10.13;5.03;;;15.20;99.90;;;;;;6220963;23;20433;-80
2023/01/02 12:20:23;;;;;;;4.73;3.87;;;15.00;1.00;;;;;;6219560;23;20490;-80
2023/01/02 12:23:08;;;;;;;4.87;3.00;;;15.00;1.00;;;;;;6219950;23;20858;-80
2023/01/02 12:25:49;;;;;;;8.53;3.30;;;15.10;1.00;;;;;;6219456;23;20482;-80
2023/01/02 12:28:50;;;;;;;3.83;2.97;;;15.10;1.00;;;;;;6218201;23;20513;-80
2023/01/02 12:31:31;;;;;;;5.77;2.80;;;15.00;1.00;;;;;;6195494;23;20525;-80
2023/01/02 12:34:11;;;;;;;6.97;3.90;;;15.00;1.00;;;;;;6219723;23;20390;-81
2023/01/02 12:36:54;;;;;;;2.97;2.77;;;14.70;59.00;;;;;;6222074;23;20502;-80
2023/01/02 12:39:51;;;;;;;4.83;2.87;;;14.90;1.00;;;;;;6231202;23;20859;-80
2023/01/02 12:42:36;;;;;;;5.40;3.03;;;14.80;1.00;;;;;;6230356;23;20402;-80
2023/01/02 12:45:03;;;;;;;6.17;4.00;;;15.10;99.90;;;;;;6227239;23;20407;-81
2023/01/02 12:47:43;;;;;;;10.70;4.50;;;14.80;1.00;;;;;;6218923;23;20502;-81
2023/01/02 12:50:38;;;;;;;8.20;5.63;;;14.70;1.00;;;;;;6221728;23;20804;-80
2023/01/02 12:53:18;;;;;;;18.33;7.60;;;14.70;1.00;;;;;;6222267;23;20470;-80
2023/01/02 12:55:58;;;;;;;6.23;3.70;;;14.70;16.60;;;;;;6220725;23;20875;-81
2023/01/02 12:58:37;;;;;;;8.00;3.67;;;14.60;80.00;;;;;;6223566;23;20457;-80
2023/01/02 13:01:11;;;;;;;4.63;2.67;;;14.50;99.90;;;;;;6225884;23;20390;-81
2023/01/02 13:04:02;;;;;;;11.07;3.80;;;14.40;83.20;;;;;;6227429;23;20394;-80
2023/01/02 13:06:42;;;;;;;6.77;4.00;;;14.40;99.90;;;;;;6226471;23;20449;-80
2023/01/02 13:09:13;;;;;;;4.20;3.30;;;14.40;55.90;;;;;;6226634;23;20429;-80
2023/01/02 13:11:45;;;;;;;6.70;3.20;;;14.50;1.00;;;;;;6226228;23;20433;-80
2023/01/02 13:14:17;;;;;;;5.63;3.90;;;14.40;1.00;;;;;;6225765;23;20391;-81
2023/01/02 13:16:50;;;;;;;5.30;3.40;;;14.10;99.90;;;;;;6222061;23;20469;-81